Time;durP1;ratioP1;P1;durP2;ratioP2;P2;SDS_P1;SDS_P2;PMS_P1;PMS_P2;Temp;Humidity;BMP_temperature;BMP_pressure;BME280_temperature;BME280_humidity;BME280_pressure;Samples;Min_cycle;Max_cycle;Signal;HPM_P1;HPM_P2
2023/04/01 00:02:17;;;;;;;;;;;;;;;8.73;91.72;99619.66;4934710;28;19934;-73
2023/04/01 00:04:43;;;;;;;;;;;;;;;8.67;91.82;99618.13;4962064;28;20328;-72
2023/04/01 00:07:08;;;;;;;;;;;;;;;8.67;91.93;99621.63;4962603;28;20041;-72
2023/04/01 00:09:34;;;;;;;;;;;;;;;8.72;91.94;99620.75;4963292;28;20531;-71
2023/04/01 00:12:00;;;;;;;;;;;;;;;8.62;92.18;99626.22;4964650;28;19939;-73
2023/04/01 00:14:26;;;;;;;;;;;;;;;8.60;92.17;99615.84;4953959;28;19943;-71
2023/04/01 00:16:52;;;;;;;;;;;;;;;8.58;92.29;99614.50;4941396;28;20013;-74
2023/04/01 00:19:18;;;;;;;;;;;;;;;8.56;92.41;99617.47;4957428;28;19965;-73
2023/04/01 00:21:43;;;;;;;;;;;;;;;8.53;92.61;99620.69;4957518;28;21377;-71
2023/04/01 00:24:09;;;;;;;;;;;;;;;8.56;92.42;99628.13;4938586;28;19943;-74
2023/04/01 00:26:34;;;;;;;;;;;;;;;8.61;92.02;99628.09;4943859;28;20404;-71
2023/04/01 00:29:00;;;;;;;;;;;;;;;8.59;92.02;99627.56;4940199;28;20393;-74
2023/04/01 00:31:26;;;;;;;;;;;;;;;8.58;92.13;99630.53;4958698;28;20616;-74
2023/04/01 00:33:51;;;;;;;;;;;;;;;8.57;91.95;99627.06;4958459;28;20019;-70
2023/04/01 00:36:19;;;;;;;;;;;;;;;8.56;92.25;99619.34;4940159;28;19951;-73
2023/04/01 00:38:45;;;;;;;;;;;;;;;8.54;92.14;99614.28;4945004;28;19948;-73
2023/04/01 00:41:14;;;;;;;;;;;;;;;8.55;92.15;99621.22;4940908;28;19953;-74
2023/04/01 00:43:41;;;;;;;;;;;;;;;8.51;92.34;99616.72;4941189;28;20025;-73
2023/04/01 00:46:06;;;;;;;;;;;;;;;8.51;92.43;99624.72;4961005;28;20732;-70
2023/04/01 00:48:35;;;;;;;;;;;;;;;8.53;92.32;99623.34;4955224;28;19935;-73
2023/04/01 00:51:03;;;;;;;;;;;;;;;8.49;92.13;99617.00;4946363;28;20479;-71
2023/04/01 00:53:30;;;;;;;;;;;;;;;8.51;92.20;99616.72;4955897;28;19931;-74
2023/04/01 00:56:07;;;;;;;;;;;;;;;8.52;92.27;99620.97;4963339;28;19959;-73
2023/04/01 00:58:35;;;;;;;;;;;;;;;8.48;92.32;99621.56;4959646;28;20077;-72
2023/04/01 01:01:00;;;;;;;;;;;;;;;8.52;92.06;99615.63;4937210;28;19991;-73
2023/04/01 01:03:26;;;;;;;;;;;;;;;8.48;92.23;99626.88;4953906;28;20033;-72
2023/04/01 01:05:52;;;;;;;;;;;;;;;8.44;92.40;99625.84;4945745;28;19946;-73
2023/04/01 01:08:27;;;;;;;;;;;;;;;8.40;92.55;99624.00;4943865;28;19976;-72
2023/04/01 01:10:56;;;;;;;;;;;;;;;8.40;92.39;99624.84;4963802;28;20637;-72
2023/04/01 01:13:49;;;;;;;;;;;;;;;8.43;92.45;99629.59;4938921;28;19940;-72
2023/04/01 01:16:25;;;;;;;;;;;;;;;8.45;92.27;99626.66;4959095;28;19989;-73
2023/04/01 01:19:06;;;;;;;;;;;;;;;8.38;92.38;99616.31;4956561;28;19928;-72
2023/04/01 01:21:50;;;;;;;;;;;;;;;8.39;92.61;99617.09;4939278;28;19953;-73
2023/04/01 01:24:33;;;;;;;;;;;;;;;8.43;92.26;99624.25;4957520;28;19938;-73
2023/04/01 01:27:08;;;;;;;;;;;;;;;8.45;92.50;99627.44;4955030;28;20030;-72
2023/04/01 01:29:53;;;;;;;;;;;;;;;8.47;92.33;99625.31;4962849;28;20382;-73
2023/04/01 01:32:18;;;;;;;;;;;;;;;8.53;92.20;99622.56;4956722;28;20402;-72
2023/04/01 01:35:02;;;;;;;;;;;;;;;8.50;92.33;99623.13;4942691;28;19992;-72
2023/04/01 01:37:29;;;;;;;;;;;;;;;8.52;92.13;99626.31;4960113;28;19956;-72
2023/04/01 01:40:03;;;;;;;;;;;;;;;8.48;92.32;99624.22;4958824;28;19966;-72
2023/04/01 01:42:33;;;;;;;;;;;;;;;8.51;92.31;99627.38;4947307;28;20305;-71
2023/04/01 01:44:59;;;;;;;;;;;;;;;8.59;91.91;99632.09;4960402;28;20463;-71
2023/04/01 01:47:27;;;;;;;;;;;;;;;8.55;92.14;99628.44;4951608;28;19949;-71
2023/04/01 01:49:53;;;;;;;;;;;;;;;8.53;92.25;99627.91;4953876;28;19949;-72
2023/04/01 01:52:19;;;;;;;;;;;;;;;8.52;92.28;99636.97;4959632;28;20468;-72
2023/04/01 01:54:52;;;;;;;;;;;;;;;8.52;92.36;99636.97;4957211;28;19934;-72
2023/04/01 01:57:23;;;;;;;;;;;;;;;8.48;92.21;99629.56;4941828;28;20046;-72
2023/04/01 01:59:52;;;;;;;;;;;;;;;8.50;92.23;99631.94;4963277;28;20033;-72
2023/04/01 02:02:24;;;;;;;;;;;;;;;8.50;92.12;99629.28;4938934;28;19996;-72
2023/04/01 02:04:50;;;;;;;;;;;;;;;8.48;92.18;99626.88;4935907;28;20083;-72
2023/04/01 02:07:25;;;;;;;;;;;;;;;8.48;92.20;99629.56;4943626;28;20390;-72
2023/04/01 02:09:51;;;;;;;;;;;;;;;8.50;92.05;99629.28;4943052;28;20112;-72
2023/04/01 02:12:19;;;;;;;;;;;;;;;8.50;91.99;99633.81;4939469;28;20015;-72
2023/04/01 02:14:57;;;;;;;;;;;;;;;8.50;92.04;99644.47;4959113;28;20587;-72
2023/04/01 02:17:27;;;;;;;;;;;;;;;8.47;92.16;99640.50;4958046;28;20045;-72
2023/04/01 02:19:54;;;;;;;;;;;;;;;8.47;92.18;99640.50;4960321;28;19989;-73
2023/04/01 02:22:26;;;;;;;;;;;;;;;8.43;92.11;99640.28;4957767;28;19940;-72
2023/04/01 02:24:53;;;;;;;;;;;;;;;8.44;92.23;99636.53;4929125;28;19935;-71
2023/04/01 02:27:19;;;;;;;;;;;;;;;8.41;92.33;99637.09;4941928;28;19946;-72
2023/04/01 02:29:46;;;;;;;;;;;;;;;8.41;92.20;99642.44;4954450;28;19988;-72
2023/04/01 02:32:12;;;;;;;;;;;;;;;8.37;92.43;99640.59;4958906;28;19937;-72
2023/04/01 02:34:38;;;;;;;;;;;;;;;8.34;92.59;99641.16;4954474;28;20081;-72
2023/04/01 02:37:03;;;;;;;;;;;;;;;8.33;92.65;99650.19;4958163;28;20054;-71
2023/04/01 02:39:30;;;;;;;;;;;;;;;8.39;92.26;99649.91;4946410;28;19941;-72
2023/04/01 02:41:55;;;;;;;;;;;;;;;8.40;92.18;99651.53;4959292;28;20317;-72
2023/04/01 02:44:24;;;;;;;;;;;;;;;8.37;92.25;99648.59;4959726;28;19935;-72
2023/04/01 02:46:49;;;;;;;;;;;;;;;8.41;92.36;99653.09;4975504;28;19934;-70
2023/04/01 02:49:14;;;;;;;;;;;;;;;8.42;92.26;99643.22;4937521;28;19961;-73
2023/04/01 02:51:40;;;;;;;;;;;;;;;8.41;92.19;99653.09;4961828;28;19951;-73
2023/04/01 02:54:06;;;;;;;;;;;;;;;8.43;92.20;99655.50;4940442;28;19979;-72
2023/04/01 02:56:32;;;;;;;;;;;;;;;8.46;92.29;99658.38;4959532;28;20464;-72
2023/04/01 02:59:00;;;;;;;;;;;;;;;8.42;92.22;99657.38;4957702;28;19934;-72
2023/04/01 03:01:25;;;;;;;;;;;;;;;8.42;92.28;99662.69;4941249;28;20043;-72
2023/04/01 03:03:51;;;;;;;;;;;;;;;8.39;92.20;99657.91;4942702;28;20081;-72
2023/04/01 03:06:16;;;;;;;;;;;;;;;8.42;92.38;99668.03;4940000;28;20123;-74
2023/04/01 03:08:43;;;;;;;;;;;;;;;8.44;92.15;99667.75;4963484;28;19941;-71
2023/04/01 03:11:09;;;;;;;;;;;;;;;8.45;92.14;99669.34;4947346;28;19949;-72
2023/04/01 03:13:36;;;;;;;;;;;;;;;8.45;92.19;99667.47;4941884;28;20034;-72
2023/04/01 03:16:04;;;;;;;;;;;;;;;8.44;92.11;99671.22;4960850;28;20039;-71
2023/04/01 03:18:29;;;;;;;;;;;;;;;8.38;92.29;99666.19;4959952;28;20046;-72
2023/04/01 03:20:56;;;;;;;;;;;;;;;8.46;92.08;99671.72;4939961;28;19949;-72
2023/04/01 03:23:24;;;;;;;;;;;;;;;8.43;92.36;99669.63;4943460;28;20465;-72
2023/04/01 03:25:49;;;;;;;;;;;;;;;8.44;92.19;99678.41;4945446;28;19932;-72
2023/04/01 03:28:15;;;;;;;;;;;;;;;8.41;92.21;99669.13;4934433;28;20503;-72
2023/04/01 03:30:40;;;;;;;;;;;;;;;8.44;92.07;99670.41;4956874;28;19950;-72
2023/04/01 03:33:06;;;;;;;;;;;;;;;8.42;92.33;99676.03;4961578;28;19956;-72
2023/04/01 03:35:32;;;;;;;;;;;;;;;8.41;92.49;99668.31;4959589;28;19941;-72
2023/04/01 03:37:58;;;;;;;;;;;;;;;8.43;92.22;99682.97;4942333;28;19954;-72
2023/04/01 03:40:26;;;;;;;;;;;;;;;8.41;92.49;99679.78;4964212;28;19966;-71
2023/04/01 03:42:52;;;;;;;;;;;;;;;8.43;92.25;99677.63;4948226;28;19980;-72
2023/04/01 03:45:17;;;;;;;;;;;;;;;8.40;92.42;99682.72;4941253;28;20385;-71
2023/04/01 03:47:43;;;;;;;;;;;;;;;8.41;92.66;99673.66;4935482;28;20384;-72
2023/04/01 03:50:09;;;;;;;;;;;;;;;8.40;92.75;99694.22;4943233;28;20025;-74
2023/04/01 03:52:35;;;;;;;;;;;;;;;8.41;92.49;99682.44;4963707;28;19941;-70
2023/04/01 03:55:01;;;;;;;;;;;;;;;8.38;92.87;99685.66;4956974;28;19945;-72
2023/04/01 03:57:27;;;;;;;;;;;;;;;8.39;92.55;99687.25;4965018;28;19956;-72
2023/04/01 03:59:56;;;;;;;;;;;;;;;8.37;92.82;99692.09;4963155;28;20423;-70
2023/04/01 04:02:22;;;;;;;;;;;;;;;8.44;92.50;99691.75;4946219;28;20076;-72
2023/04/01 04:04:47;;;;;;;;;;;;;;;8.40;92.82;99691.53;4949542;28;19941;-73
2023/04/01 04:07:13;;;;;;;;;;;;;;;8.43;92.50;99695.50;4947510;28;20283;-73
2023/04/01 04:09:59;;;;;;;;;;;;;;;8.40;92.76;99696.88;4961851;28;19957;-73
2023/04/01 04:12:25;;;;;;;;;;;;;;;8.41;92.71;99695.78;4927572;28;20312;-73
2023/04/01 04:14:50;;;;;;;;;;;;;;;8.38;92.59;99691.00;4955869;28;19966;-72
2023/04/01 04:17:16;;;;;;;;;;;;;;;8.43;92.49;99698.19;4963474;28;20266;-74
2023/04/01 04:19:42;;;;;;;;;;;;;;;8.38;92.68;99700.88;4938633;28;19944;-72
2023/04/01 04:22:08;;;;;;;;;;;;;;;8.42;92.51;99705.38;4948324;28;19937;-72
2023/04/01 04:24:35;;;;;;;;;;;;;;;8.43;92.57;99698.97;4978997;28;19949;-72
2023/04/01 04:27:06;;;;;;;;;;;;;;;8.42;92.41;99708.06;4963894;28;19943;-73
2023/04/01 04:29:33;;;;;;;;;;;;;;;8.42;92.13;99712.59;4962219;28;20307;-73
2023/04/01 04:32:00;;;;;;;;;;;;;;;8.42;92.40;99708.06;4969018;28;20240;-73
2023/04/01 04:34:26;;;;;;;;;;;;;;;8.41;92.44;99705.69;4950179;28;19979;-72
2023/04/01 04:36:51;;;;;;;;;;;;;;;8.43;92.19;99709.66;4962926;28;20453;-73
2023/04/01 04:39:18;;;;;;;;;;;;;;;8.40;92.61;99720.88;4966340;28;19939;-73
2023/04/01 04:41:44;;;;;;;;;;;;;;;8.37;92.56;99721.44;4956608;28;19955;-72
2023/04/01 04:44:10;;;;;;;;;;;;;;;8.35;92.49;99718.25;4961621;28;20356;-72
2023/04/01 04:46:37;;;;;;;;;;;;;;;8.39;92.54;99724.59;4932505;28;19940;-73
2023/04/01 04:49:10;;;;;;;;;;;;;;;8.42;92.61;99720.59;4965534;28;19939;-73
2023/04/01 04:51:36;;;;;;;;;;;;;;;8.37;92.57;99734.78;4963383;28;19961;-72
2023/04/01 04:54:05;;;;;;;;;;;;;;;8.36;92.69;99727.84;4941604;28;19933;-73
2023/04/01 04:56:44;;;;;;;;;;;;;;;8.41;92.40;99725.16;4954821;28;19963;-73
2023/04/01 04:59:09;;;;;;;;;;;;;;;8.43;92.50;99735.53;4943504;28;19934;-73
2023/04/01 05:01:55;;;;;;;;;;;;;;;8.41;92.71;99735.03;4957723;28;19945;-72
2023/04/01 05:04:23;;;;;;;;;;;;;;;8.43;92.47;99740.88;4943967;28;19931;-72
2023/04/01 05:06:49;;;;;;;;;;;;;;;8.40;92.57;99742.22;4908804;28;19959;-73
2023/04/01 05:09:16;;;;;;;;;;;;;;;8.40;92.57;99746.75;4959056;28;20007;-72
2023/04/01 05:11:41;;;;;;;;;;;;;;;8.40;92.54;99744.91;4947163;28;19985;-72
2023/04/01 05:14:11;;;;;;;;;;;;;;;8.38;92.67;99754.25;4957752;28;19936;-72
2023/04/01 05:16:37;;;;;;;;;;;;;;;8.39;92.61;99743.28;4947182;28;19953;-72
2023/04/01 05:19:03;;;;;;;;;;;;;;;8.41;92.68;99749.16;4964252;28;20527;-72
2023/04/01 05:21:28;;;;;;;;;;;;;;;8.42;92.75;99749.94;4939976;28;19952;-72
2023/04/01 05:23:55;;;;;;;;;;;;;;;8.43;92.48;99749.66;4946711;28;19980;-72
2023/04/01 05:26:22;;;;;;;;;;;;;;;8.41;92.71;99753.69;4960376;28;20019;-72
2023/04/01 05:28:49;;;;;;;;;;;;;;;8.43;92.59;99763.00;4934144;28;20015;-72
2023/04/01 05:31:14;;;;;;;;;;;;;;;8.48;92.71;99760.31;4965455;28;20904;-72
2023/04/01 05:33:42;;;;;;;;;;;;;;;8.52;92.32;99762.41;4958777;28;19948;-72
2023/04/01 05:36:12;;;;;;;;;;;;;;;8.44;92.48;99777.94;4962508;28;19963;-72
2023/04/01 05:38:39;;;;;;;;;;;;;;;8.47;92.50;99773.94;4942740;28;20404;-72
2023/04/01 05:41:07;;;;;;;;;;;;;;;8.50;92.26;99767.22;4963423;28;19972;-71
2023/04/01 05:43:36;;;;;;;;;;;;;;;8.50;92.62;99768.03;4962155;28;19938;-72
2023/04/01 05:46:12;;;;;;;;;;;;;;;8.51;92.82;99784.81;4958608;28;20033;-73
2023/04/01 05:48:49;;;;;;;;;;;;;;;8.55;92.52;99781.34;4954726;28;20299;-72
2023/04/01 05:51:16;;;;;;;;;;;;;;;8.54;92.39;99784.28;4941192;28;19978;-72
2023/04/01 05:53:42;;;;;;;;;;;;;;;8.51;92.49;99787.50;4959301;28;19936;-71
2023/04/01 05:56:09;;;;;;;;;;;;;;;8.62;92.38;99791.69;4962340;28;20434;-72
2023/04/01 05:58:39;;;;;;;;;;;;;;;8.42;89.76;99798.78;4944266;28;19930;-72
2023/04/01 06:01:09;;;;;;;;;;;;;;;8.23;90.34;99789.78;4961079;28;20040;-72
2023/04/01 06:03:35;;;;;;;;;;;;;;;7.99;89.43;99803.00;4980452;28;20394;-73
2023/04/01 06:06:01;;;;;;;;;;;;;;;7.82;90.14;99802.56;4929779;28;19943;-72
2023/04/01 06:08:27;;;;;;;;;;;;;;;7.69;90.29;99811.16;4936399;28;20228;-71
2023/04/01 06:11:01;;;;;;;;;;;;;;;7.61;90.34;99809.84;4954290;28;19951;-71
2023/04/01 06:13:27;;;;;;;;;;;;;;;7.52;90.21;99816.78;4943411;28;20055;-71
2023/04/01 06:16:00;;;;;;;;;;;;;;;7.36;89.84;99819.50;4960254;28;19935;-71
2023/04/01 06:18:35;;;;;;;;;;;;;;;7.29;90.65;99819.00;4939635;28;19938;-71
2023/04/01 06:21:04;;;;;;;;;;;;;;;7.25;90.04;99828.59;4925119;29;19960;-71
2023/04/01 06:23:33;;;;;;;;;;;;;;;7.10;89.94;99828.59;4928582;28;19938;-71
2023/04/01 06:26:04;;;;;;;;;;;;;;;7.05;89.92;99831.31;4976334;28;20358;-72
2023/04/01 06:28:35;;;;;;;;;;;;;;;6.94;90.26;99838.47;4944661;28;19947;-72
2023/04/01 06:31:10;;;;;;;;;;;;;;;6.94;90.31;99843.00;4961546;28;19975;-72
2023/04/01 06:33:39;;;;;;;;;;;;;;;6.90;90.22;99845.41;4958696;28;19941;-72
2023/04/01 06:36:21;;;;;;;;;;;;;;;6.90;90.54;99857.91;4953719;28;20327;-72
2023/04/01 06:38:46;;;;;;;;;;;;;;;6.88;90.50;99855.50;4976123;28;19937;-72
2023/04/01 06:41:18;;;;;;;;;;;;;;;6.79;90.26;99863.25;4942186;28;19951;-72
2023/04/01 06:43:44;;;;;;;;;;;;;;;6.75;90.50;99867.47;4979575;28;20052;-72
2023/04/01 06:46:47;;;;;;;;;;;;;;;6.65;90.39;99867.50;4957061;28;20021;-72
2023/04/01 06:50:15;;;;;;;;;;;;;;;6.60;90.52;99875.47;4925767;29;19948;-74
2023/04/01 06:53:12;;;;;;;;;;;;;;;6.63;89.49;99871.47;4928755;28;20054;-75
2023/04/01 06:56:03;;;;;;;;;;;;;;;6.54;89.77;99879.97;4960498;28;19940;-71
2023/04/01 06:58:40;;;;;;;;;;;;;;;6.49;89.74;99887.13;4958982;28;19936;-72
2023/04/01 07:01:08;;;;;;;;;;;;;;;6.45;90.38;99899.38;4940785;28;19949;-72
2023/04/01 07:03:41;;;;;;;;;;;;;;;6.50;90.53;99908.19;4943245;28;19940;-72
2023/04/01 07:06:14;;;;;;;;;;;;;;;6.48;89.96;99904.97;4952397;28;19938;-72
2023/04/01 07:08:50;;;;;;;;;;;;;;;6.33;90.14;99902.25;4926456;28;20394;-72
2023/04/01 07:11:22;;;;;;;;;;;;;;;6.33;90.21;99906.78;4939626;28;19968;-71
2023/04/01 07:14:25;;;;;;;;;;;;;;;6.32;89.57;99915.84;4971132;28;19933;-74
2023/04/01 07:16:58;;;;;;;;;;;;;;;6.20;90.03;99924.81;4961555;28;19949;-72
2023/04/01 07:19:29;;;;;;;;;;;;;;;6.28;89.66;99932.28;4944485;28;20385;-71
2023/04/01 07:22:05;;;;;;;;;;;;;;;6.21;89.62;99925.63;4944837;28;19950;-73
2023/04/01 07:24:51;;;;;;;;;;;;;;;6.11;89.32;99930.91;4939172;28;20040;-71
2023/04/01 07:27:19;;;;;;;;;;;;;;;6.07;89.42;99937.78;4960610;28;19953;-72
2023/04/01 07:29:45;;;;;;;;;;;;;;;6.08;89.72;99947.38;4952341;28;20041;-71
2023/04/01 07:32:16;;;;;;;;;;;;;;;6.07;89.44;99940.44;4926222;28;20061;-72
2023/04/01 07:34:54;;;;;;;;;;;;;;;6.14;89.80;99947.13;4937162;28;20394;-72
2023/04/01 07:37:34;;;;;;;;;;;;;;;6.21;88.93;99954.88;4936726;28;20389;-72
2023/04/01 07:39:59;;;;;;;;;;;;;;;6.13;89.04;99958.81;4964436;28;20386;-72
2023/04/01 07:43:00;;;;;;;;;;;;;;;6.12;89.10;99965.19;4950388;28;19957;-72
2023/04/01 07:45:26;;;;;;;;;;;;;;;5.98;88.41;99966.72;4959142;28;19943;-71
2023/04/01 07:48:25;;;;;;;;;;;;;;;6.08;89.43;99972.09;4963878;28;19958;-72
2023/04/01 07:51:03;;;;;;;;;;;;;;;6.09;88.80;99971.03;4940977;28;19997;-74
2023/04/01 07:53:41;;;;;;;;;;;;;;;5.97;88.59;99976.56;4964233;28;19933;-72
2023/04/01 07:56:07;;;;;;;;;;;;;;;5.89;88.39;99984.16;4960458;28;19934;-71
2023/04/01 07:58:40;;;;;;;;;;;;;;;5.80;88.11;99999.00;4957939;28;19941;-72
2023/04/01 08:01:30;;;;;;;;;;;;;;;5.87;88.54;99996.91;4964802;28;20524;-73
2023/04/01 08:04:16;;;;;;;;;;;;;;;5.86;88.10;99993.47;4963400;28;20051;-72
2023/04/01 08:06:47;;;;;;;;;;;;;;;5.96;88.56;100003.38;4945819;28;19956;-74
2023/04/01 08:09:17;;;;;;;;;;;;;;;5.90;88.24;99999.88;4960153;28;20647;-71
2023/04/01 08:12:16;;;;;;;;;;;;;;;5.94;87.52;100018.78;4951862;28;19938;-72
2023/04/01 08:15:07;;;;;;;;;;;;;;;5.89;88.13;100018.72;4961528;28;19997;-73
2023/04/01 08:18:13;;;;;;;;;;;;;;;5.98;88.39;100022.53;4947007;28;19961;-73
2023/04/01 08:20:44;;;;;;;;;;;;;;;6.04;88.29;100020.72;4941706;28;19965;-72
2023/04/01 08:23:10;;;;;;;;;;;;;;;5.83;87.86;100030.41;4947128;28;19936;-74
2023/04/01 08:25:40;;;;;;;;;;;;;;;5.80;88.52;100034.34;4965062;28;20937;-74
2023/04/01 08:28:15;;;;;;;;;;;;;;;5.93;87.49;100039.25;4944929;28;19938;-74
2023/04/01 08:30:44;;;;;;;;;;;;;;;5.83;87.54;100041.03;4964533;28;19949;-73
2023/04/01 08:33:15;;;;;;;;;;;;;;;5.95;87.37;100045.09;4947464;28;19938;-72
2023/04/01 08:35:46;;;;;;;;;;;;;;;5.83;87.15;100056.97;4949625;28;19936;-74
2023/04/01 08:38:28;;;;;;;;;;;;;;;5.80;87.69;100060.13;4946773;28;19994;-71
2023/04/01 08:40:58;;;;;;;;;;;;;;;5.88;87.30;100056.97;4944942;28;20009;-72
2023/04/01 08:43:41;;;;;;;;;;;;;;;5.83;86.44;100063.09;4941665;28;20753;-74
2023/04/01 08:46:25;;;;;;;;;;;;;;;5.78;87.17;100064.88;4928147;28;19934;-74
2023/04/01 08:49:03;;;;;;;;;;;;;;;5.87;87.73;100060.69;4975956;28;19931;-72
2023/04/01 08:51:35;;;;;;;;;;;;;;;5.96;87.41;100080.44;4976223;28;20321;-73
2023/04/01 08:54:16;;;;;;;;;;;;;;;6.03;86.77;100073.09;4960331;28;19941;-72
2023/04/01 08:56:57;;;;;;;;;;;;;;;6.00;87.07;100078.91;4965685;28;19971;-73
2023/04/01 08:59:28;;;;;;;;;;;;;;;5.92;86.10;100079.38;4932851;28;19962;-73
2023/04/01 09:01:54;;;;;;;;;;;;;;;5.85;86.20;100079.56;4960557;28;19956;-72
2023/04/01 09:04:42;;;;;;;;;;;;;;;5.79;86.57;100093.06;4961479;28;19941;-73
2023/04/01 09:07:27;;;;;;;;;;;;;;;5.78;87.50;100102.88;4962241;28;19934;-73
2023/04/01 09:10:18;;;;;;;;;;;;;;;5.75;86.40;100088.25;4936671;28;19977;-72
2023/04/01 09:12:59;;;;;;;;;;;;;;;5.69;86.52;100105.22;4942169;28;19948;-72
2023/04/01 09:15:24;;;;;;;;;;;;;;;5.64;86.36;100102.50;4959013;28;19939;-74
2023/04/01 09:17:56;;;;;;;;;;;;;;;5.67;86.96;100106.50;4960507;28;20745;-72
2023/04/01 09:20:40;;;;;;;;;;;;;;;5.62;86.27;100119.72;4961436;28;20628;-73
2023/04/01 09:23:05;;;;;;;;;;;;;;;5.70;86.13;100122.75;4931715;28;20021;-72
2023/04/01 09:25:50;;;;;;;;;;;;;;;5.77;87.29;100117.22;4947199;28;20019;-72
2023/04/01 09:28:39;;;;;;;;;;;;;;;5.61;86.70;100123.44;4957122;28;19945;-72
2023/04/01 09:31:22;;;;;;;;;;;;;;;5.83;86.66;100126.84;4953320;28;20051;-72
2023/04/01 09:34:26;;;;;;;;;;;;;;;5.71;86.47;100136.84;4925907;28;19943;-72
2023/04/01 09:37:17;;;;;;;;;;;;;;;5.68;87.14;100135.47;4963202;28;19958;-72
2023/04/01 09:39:54;;;;;;;;;;;;;;;5.86;87.18;100147.59;4933742;28;19935;-74
2023/04/01 09:42:39;;;;;;;;;;;;;;;5.78;86.58;100139.28;4958865;28;19933;-72
2023/04/01 09:45:25;;;;;;;;;;;;;;;5.77;86.31;100145.66;4954891;28;19934;-72
2023/04/01 09:48:20;;;;;;;;;;;;;;;5.74;85.92;100154.91;4959007;28;19973;-71
2023/04/01 09:50:50;;;;;;;;;;;;;;;5.77;86.85;100157.09;4922453;28;19950;-71
2023/04/01 09:53:36;;;;;;;;;;;;;;;5.88;86.82;100164.06;4962004;28;19964;-71
2023/04/01 09:56:27;;;;;;;;;;;;;;;5.96;86.53;100157.53;4932131;28;20036;-70
2023/04/01 09:59:10;;;;;;;;;;;;;;;5.95;86.45;100171.88;4966627;28;19936;-72
2023/04/01 10:01:58;;;;;;;;;;;;;;;5.92;86.04;100167.88;4959787;28;19964;-75
2023/04/01 10:04:47;;;;;;;;;;;;;;;5.90;86.10;100171.81;4960130;28;19936;-72
2023/04/01 10:07:29;;;;;;;;;;;;;;;5.83;85.75;100179.19;4961603;28;20037;-72
2023/04/01 10:10:07;;;;;;;;;;;;;;;5.93;86.25;100171.34;4958410;28;19961;-75
2023/04/01 10:12:39;;;;;;;;;;;;;;;5.80;86.32;100174.38;4921266;28;19945;-72
2023/04/01 10:15:24;;;;;;;;;;;;;;;5.84;87.00;100175.47;4974065;28;19942;-71
2023/04/01 10:18:08;;;;;;;;;;;;;;;5.84;86.48;100194.09;4939550;28;20453;-72
2023/04/01 10:20:47;;;;;;;;;;;;;;;5.93;85.30;100190.75;4948272;28;19985;-73
2023/04/01 10:23:28;;;;;;;;;;;;;;;5.83;85.58;100189.84;4958703;28;19937;-72
2023/04/01 10:26:03;;;;;;;;;;;;;;;5.83;86.25;100203.13;4978545;28;19985;-72
2023/04/01 10:28:41;;;;;;;;;;;;;;;5.77;86.05;100201.47;4943433;28;20363;-72
2023/04/01 10:31:54;;;;;;;;;;;;;;;5.89;87.13;100194.13;4948870;28;20452;-72
2023/04/01 10:34:36;;;;;;;;;;;;;;;6.10;87.06;100203.13;4939208;28;20030;-72
2023/04/01 10:37:05;;;;;;;;;;;;;;;5.88;86.10;100203.94;4940703;28;20357;-72
2023/04/01 10:39:58;;;;;;;;;;;;;;;5.96;85.53;100216.00;4945522;28;20321;-75
2023/04/01 10:42:57;;;;;;;;;;;;;;;5.99;85.99;100220.84;4957947;28;19938;-72
2023/04/01 10:45:48;;;;;;;;;;;;;;;6.00;85.11;100225.09;4953520;28;19935;-71
2023/04/01 10:48:41;;;;;;;;;;;;;;;6.16;85.37;100226.03;4942768;28;19940;-72
2023/04/01 10:51:26;;;;;;;;;;;;;;;6.04;85.62;100220.88;4959552;28;19953;-72
2023/04/01 10:54:15;;;;;;;;;;;;;;;6.14;85.01;100231.59;4959343;28;19941;-72
2023/04/01 10:56:58;;;;;;;;;;;;;;;6.13;84.24;100232.66;4955614;28;20060;-73
2023/04/01 10:59:57;;;;;;;;;;;;;;;6.02;85.04;100233.59;4956658;28;19948;-71
2023/04/01 11:02:47;;;;;;;;;;;;;;;5.85;85.54;100246.19;4958347;28;20011;-74
2023/04/01 11:05:50;;;;;;;;;;;;;;;5.99;84.97;100244.75;4955203;28;19959;-69
2023/04/01 11:08:38;;;;;;;;;;;;;;;6.11;84.75;100250.72;4946129;28;19937;-75
2023/04/01 11:11:17;;;;;;;;;;;;;;;6.18;84.66;100250.53;4918117;28;20430;-72
2023/04/01 11:14:02;;;;;;;;;;;;;;;6.00;84.68;100257.00;4944943;28;19941;-71
2023/04/01 11:16:31;;;;;;;;;;;;;;;5.93;84.80;100253.72;4966399;28;19959;-72
2023/04/01 11:19:00;;;;;;;;;;;;;;;5.98;85.00;100256.44;4946111;28;19931;-72
2023/04/01 11:21:34;;;;;;;;;;;;;;;5.97;85.19;100273.44;4965250;28;19959;-72
2023/04/01 11:24:13;;;;;;;;;;;;;;;5.88;84.58;100282.88;4965416;28;19933;-71
2023/04/01 11:26:52;;;;;;;;;;;;;;;5.92;84.96;100279.50;4959196;28;19936;-73
2023/04/01 11:29:44;;;;;;;;;;;;;;;5.98;84.87;100283.03;4962303;28;19942;-74
2023/04/01 11:32:24;;;;;;;;;;;;;;;5.99;84.76;100289.94;4980935;28;20303;-75
2023/04/01 11:35:00;;;;;;;;;;;;;;;5.82;83.37;100283.88;4964382;28;19940;-72
2023/04/01 11:37:49;;;;;;;;;;;;;;;5.94;83.39;100295.19;4962799;28;19956;-73
2023/04/01 11:41:01;;;;;;;;;;;;;;;5.98;83.19;100298.97;4927421;28;20412;-74
2023/04/01 11:43:54;;;;;;;;;;;;;;;6.22;83.67;100291.50;4943219;28;19988;-73
2023/04/01 11:46:46;;;;;;;;;;;;;;;6.00;83.86;100302.19;4956965;28;19964;-72
2023/04/01 11:49:24;;;;;;;;;;;;;;;6.10;84.30;100307.63;4947405;28;19938;-71
2023/04/01 11:52:11;;;;;;;;;;;;;;;6.12;84.31;100304.69;4944113;28;19943;-72
2023/04/01 11:54:55;;;;;;;;;;;;;;;6.12;84.17;100312.69;4965181;28;19948;-73
2023/04/01 11:57:20;;;;;;;;;;;;;;;5.98;84.02;100328.22;4956799;28;20431;-71
2023/04/01 12:00:05;;;;;;;;;;;;;;;6.10;83.41;100318.25;4942534;28;19977;-71
2023/04/01 12:02:58;;;;;;;;;;;;;;;5.92;82.98;100332.66;4958801;28;20026;-71
2023/04/01 12:05:24;;;;;;;;;;;;;;;5.97;83.52;100334.59;4946449;28;19958;-72
2023/04/01 12:08:14;;;;;;;;;;;;;;;5.89;83.77;100333.13;4960767;28;19933;-73
2023/04/01 12:10:45;;;;;;;;;;;;;;;5.79;83.26;100350.81;4964132;28;19986;-72
2023/04/01 12:13:25;;;;;;;;;;;;;;;5.78;83.96;100346.53;4949569;28;19942;-72
2023/04/01 12:15:57;;;;;;;;;;;;;;;5.79;84.50;100353.47;4960252;28;19942;-72
2023/04/01 12:18:25;;;;;;;;;;;;;;;5.80;83.69;100352.41;4961587;28;20002;-73
2023/04/01 12:20:57;;;;;;;;;;;;;;;5.66;84.37;100366.06;4968237;28;20053;-72
2023/04/01 12:23:34;;;;;;;;;;;;;;;5.72;84.85;100370.38;4965271;28;20996;-73
2023/04/01 12:26:23;;;;;;;;;;;;;;;5.81;85.17;100377.94;4981941;28;19937;-73
2023/04/01 12:28:55;;;;;;;;;;;;;;;5.70;83.10;100372.50;4946120;28;20014;-70
2023/04/01 12:31:29;;;;;;;;;;;;;;;5.68;82.75;100387.84;4960862;28;20044;-74
2023/04/01 12:34:10;;;;;;;;;;;;;;;5.69;82.28;100388.66;4943584;28;19937;-75
2023/04/01 12:36:54;;;;;;;;;;;;;;;5.60;82.28;100393.59;4964839;28;20450;-71
2023/04/01 12:39:29;;;;;;;;;;;;;;;5.74;81.44;100392.19;4960397;28;19972;-74
2023/04/01 12:42:00;;;;;;;;;;;;;;;5.67;82.77;100399.53;4960454;28;19949;-72
2023/04/01 12:44:29;;;;;;;;;;;;;;;5.56;83.30;100407.63;4959425;28;20464;-72
2023/04/01 12:47:00;;;;;;;;;;;;;;;5.52;83.51;100407.31;4962160;28;19989;-73
2023/04/01 12:49:38;;;;;;;;;;;;;;;5.46;82.72;100413.59;4954993;28;19936;-72
2023/04/01 12:52:06;;;;;;;;;;;;;;;5.38;83.67;100422.78;4946337;28;19945;-72
2023/04/01 12:54:38;;;;;;;;;;;;;;;5.39;84.20;100423.56;4965465;28;20399;-72
2023/04/01 12:57:04;;;;;;;;;;;;;;;5.43;83.57;100422.84;4954265;28;19962;-74
2023/04/01 12:59:43;;;;;;;;;;;;;;;5.41;83.77;100434.75;4959184;28;20407;-74
2023/04/01 13:02:14;;;;;;;;;;;;;;;5.36;83.87;100435.50;4961888;28;19931;-72
2023/04/01 13:04:55;;;;;;;;;;;;;;;5.38;83.23;100444.03;4947593;28;19944;-72
2023/04/01 13:07:30;;;;;;;;;;;;;;;5.37;83.40;100446.94;4946361;28;20064;-72
2023/04/01 13:10:24;;;;;;;;;;;;;;;5.68;82.68;100443.66;4943901;28;19957;-71
2023/04/01 13:13:14;;;;;;;;;;;;;;;5.59;83.45;100453.09;4958211;28;19977;-72
2023/04/01 13:15:46;;;;;;;;;;;;;;;5.58;81.96;100459.47;4948272;28;19944;-71
2023/04/01 13:18:27;;;;;;;;;;;;;;;5.47;82.23;100465.66;4937927;28;19953;-70
2023/04/01 13:21:00;;;;;;;;;;;;;;;5.32;82.39;100470.72;4959338;28;19944;-73
2023/04/01 13:23:31;;;;;;;;;;;;;;;5.37;82.18;100457.53;4941308;28;20397;-72
2023/04/01 13:26:13;;;;;;;;;;;;;;;5.40;82.31;100467.66;4958270;28;19934;-73
2023/04/01 13:28:44;;;;;;;;;;;;;;;5.35;82.28;100479.03;4962010;28;19938;-72
2023/04/01 13:31:19;;;;;;;;;;;;;;;5.29;82.80;100487.16;4949078;28;20033;-72